D/T METAR WX W/DIR W/SPE G/SPE TEMP DEWP
19/03/19 03:50 EGNJ 190350Z AUTO 20006KT //// // FEW004/// BKN012/// OVC036/// 07/07 Q1024 SSW (200°) 6.9mph 7°C 7°C
19/03/19 02:50 EGNJ 190250Z AUTO 20005KT //// // FEW007/// SCT017/// BKN028/// 07/06 Q1023 SSW (200°) 5.8mph 7°C 6°C
19/03/19 02:20 EGNJ 190220Z AUTO 20005KT //// // SCT008/// BKN012/// BKN019/// 07/06 Q1023 SSW (200°) 5.8mph 7°C 6°C
19/03/19 01:50 EGNJ 190150Z AUTO 20005KT //// // SCT019/// SCT024/// BKN029/// 07/06 Q1023 SSW (200°) 5.8mph 7°C 6°C
19/03/19 01:20 EGNJ 190120Z AUTO 22005KT //// // SCT012/// BKN017/// OVC025/// 07/06 Q1023 SW (220°) 5.8mph 7°C 6°C
19/03/19 00:50 EGNJ 190050Z AUTO 19006KT //// // FEW018/// BKN025/// BKN030/// 06/06 Q1023 S (190°) 6.9mph 6°C 6°C
18/03/19 23:50 EGNJ 182350Z AUTO 21004KT //// // FEW023/// BKN036/// OVC043/// 07/06 Q1023 SSW (210°) 4.6mph 7°C 6°C
18/03/19 23:20 EGNJ 182320Z AUTO 20006KT //// // BKN020/// OVC027/// 07/06 Q1023 SSW (200°) 6.9mph 7°C 6°C
18/03/19 22:20 EGNJ 182220Z AUTO 19004KT //// // BKN027/// OVC046/// 06/05 Q1022 S (190°) 4.6mph 6°C 5°C
18/03/19 21:50 EGNJ 182150Z AUTO 20005KT //// // FEW027/// SCT034/// OVC046/// 07/06 Q1022 SSW (200°) 5.8mph 7°C 6°C
18/03/19 20:50 EGNJ 182050Z 20004KT 9999 FEW016 SCT030 BKN047 07/05 Q1022 SSW (200°) 4.6mph 7°C 5°C
18/03/19 20:20 EGNJ 182020Z 21006KT 9999 FEW020 SCT046 08/05 Q1022 SSW (210°) 6.9mph 8°C 5°C
18/03/19 19:50 EGNJ 181950Z 20005KT 9999 FEW025 BKN048 07/06 Q1022 SSW (200°) 5.8mph 7°C 6°C
18/03/19 19:20 EGNJ 181920Z VRB01KT 9999 FEW022 BKN048 08/06 Q1021 N (0°) 1.2mph 8°C 6°C
18/03/19 18:20 EGNJ 181820Z 24003KT 9999 FEW020 07/06 Q1021 WSW (240°) 3.5mph 7°C 6°C
18/03/19 17:50 EGNJ 181750Z 19002KT 9999 FEW012 SCT027 BKN039 07/06 Q1021 S (190°) 2.3mph 7°C 6°C
18/03/19 16:50 EGNJ 181650Z VRB02KT 9000 -SHRA FEW008 SCT026 BKN030 07/06 Q1020 RERA -SHRA N (0°) 2.3mph 7°C 6°C
18/03/19 16:20 EGNJ 181620Z 32009KT 6000 SHRA FEW010 SCT015 BKN024 07/05 Q1020 SHRA NW (320°) 10.4mph 7°C 5°C
18/03/19 15:50 EGNJ 181550Z 28011KT 9999 -SHRA FEW030CB SCT036 09/05 Q1020 -SHRA W (280°) 12.7mph 9°C 5°C
18/03/19 15:20 EGNJ 181520Z 29009KT 9999 FEW030 SCT038 10/04 Q1019 WNW (290°) 10.4mph 10°C 4°C
18/03/19 14:50 EGNJ 181450Z 29012KT 9999 FEW032 BKN040 10/04 Q1019 WNW (290°) 13.8mph 10°C 4°C
18/03/19 14:20 EGNJ 181420Z 24009KT 9999 FEW030 BKN033 11/03 Q1019 WSW (240°) 10.4mph 11°C 3°C
18/03/19 13:50 EGNJ 181350Z 29008KT 240V340 9999 FEW030 BKN033 11/03 Q1019 WNW (290°) 9.2mph 11°C 3°C
18/03/19 13:20 EGNJ 181320Z 26006KT 210V300 9999 FEW025 BKN028 11/03 Q1019 W (260°) 6.9mph 11°C 3°C
18/03/19 12:50 EGNJ 181250Z 29008KT 9999 BKN028 10/03 Q1019 WNW (290°) 9.2mph 10°C 3°C
18/03/19 12:20 EGNJ 181220Z 28007KT 9999 BKN028 10/03 Q1019 W (280°) 8.1mph 10°C 3°C
18/03/19 11:50 EGNJ 181150Z 28009KT 9999 FEW022 BKN024 10/03 Q1019 W (280°) 10.4mph 10°C 3°C
18/03/19 11:20 EGNJ 181120Z 28009KT 240V300 9999 FEW021 SCT024 10/03 Q1019 W (280°) 10.4mph 10°C 3°C
18/03/19 10:50 EGNJ 181050Z 29010KT 9999 SCT022 09/03 Q1019 WNW (290°) 11.5mph 9°C 3°C
18/03/19 10:20 EGNJ 181020Z 30009KT 270V340 9999 BKN022 09/04 Q1018 WNW (300°) 10.4mph 9°C 4°C
18/03/19 09:50 EGNJ 180950Z 29009KT 9999 SCT020 08/03 Q1018 WNW (290°) 10.4mph 8°C 3°C
18/03/19 09:20 EGNJ 180920Z 28007KT 240V300 9999 FEW015 07/04 Q1018 W (280°) 8.1mph 7°C 4°C
18/03/19 08:50 EGNJ 180850Z 27006KT 9999 FEW012 06/03 Q1018 W (270°) 6.9mph 6°C 3°C
18/03/19 08:20 EGNJ 180820Z 25006KT 9999 FEW017 05/03 Q1017 WSW (250°) 6.9mph 5°C 3°C
18/03/19 07:50 EGNJ 180750Z 25007KT 9999 FEW019 SCT037 04/02 Q1017 WSW (250°) 8.1mph 4°C 2°C
18/03/19 07:20 EGNJ 180720Z 25007KT 9999 FEW031 SCT038 03/02 Q1017 WSW (250°) 8.1mph 3°C 2°C
18/03/19 06:50 EGNJ 180650Z 24004KT 9999 SCT043 03/02 Q1017 WSW (240°) 4.6mph 3°C 2°C
18/03/19 06:20 EGNJ 180620Z 25007KT 9999 FEW032 SCT043 03/01 Q1016 WSW (250°) 8.1mph 3°C 1°C
18/03/19 05:50 EGNJ 180550Z 25008KT 9999 FEW030 02/01 Q1016 WSW (250°) 9.2mph 2°C 1°C
18/03/19 05:20 EGNJ 180520Z AUTO 26008KT //// // FEW048/// 03/01 Q1016 W (260°) 9.2mph 3°C 1°C
18/03/19 04:50 EGNJ 180450Z AUTO 27007KT //// // NCD 03/02 Q1015 W (270°) 8.1mph 3°C 2°C
18/03/19 04:20 EGNJ 180420Z AUTO 26006KT //// // NCD 02/01 Q1015 W (260°) 6.9mph 2°C 1°C
18/03/19 03:50 EGNJ 180350Z AUTO 26006KT //// // FEW048/// 03/01 Q1015 W (260°) 6.9mph 3°C 1°C
18/03/19 03:20 EGNJ 180320Z AUTO 27007KT //// // BKN048/// 03/02 Q1014 W (270°) 8.1mph 3°C 2°C
18/03/19 02:50 EGNJ 180250Z AUTO 27007KT //// // NCD 03/02 Q1014 W (270°) 8.1mph 3°C 2°C
18/03/19 02:20 EGNJ 180220Z AUTO 27005KT //// // NCD 03/01 Q1014 W (270°) 5.8mph 3°C 1°C
18/03/19 01:50 EGNJ 180150Z AUTO 27006KT //// // NCD 02/01 Q1014 W (270°) 6.9mph 2°C 1°C
18/03/19 01:20 EGNJ 180120Z AUTO 27004KT //// // NCD 03/01 Q1013 W (270°) 4.6mph 3°C 1°C
18/03/19 00:50 EGNJ 180050Z AUTO 26006KT //// // NCD 03/01 Q1013 W (260°) 6.9mph 3°C 1°C
18/03/19 00:20 EGNJ 180020Z AUTO 27006KT //// // NCD 04/02 Q1012 W (270°) 6.9mph 4°C 2°C
17/03/19 23:50 EGNJ 172350Z AUTO 27007KT //// // NCD 04/02 Q1012 W (270°) 8.1mph 4°C 2°C
17/03/19 23:20 EGNJ 172320Z AUTO 27008KT //// // FEW045/// 04/02 Q1012 W (270°) 9.2mph 4°C 2°C
17/03/19 22:50 EGNJ 172250Z AUTO 27007KT //// // FEW046/// 04/02 Q1011 W (270°) 8.1mph 4°C 2°C
17/03/19 22:20 EGNJ 172220Z AUTO 26006KT //// // NCD 05/03 Q1011 W (260°) 6.9mph 5°C 3°C
17/03/19 21:50 EGNJ 172150Z AUTO 26005KT //// // FEW035/// 04/03 Q1011 W (260°) 5.8mph 4°C 3°C
17/03/19 21:20 EGNJ 172120Z AUTO VRB03KT //// // BKN039/// BKN046/// 04/03 Q1010 N (0°) 3.5mph 4°C 3°C
17/03/19 20:50 EGNJ 172050Z 36007KT 9999 FEW017 SCT025 05/03 Q1010 N (360°) 8.1mph 5°C 3°C
17/03/19 20:20 EGNJ 172020Z 25007KT 9999 FEW020 SCT030 05/03 Q1009 WSW (250°) 8.1mph 5°C 3°C
17/03/19 19:50 EGNJ 171950Z 25006KT 9999 FEW020 SCT028 05/03 Q1008 WSW (250°) 6.9mph 5°C 3°C
17/03/19 19:20 EGNJ 171920Z 30007KT 270V330 9999 -RA FEW015 SCT025 05/04 Q1008 -RA WNW (300°) 8.1mph 5°C 4°C
17/03/19 18:50 EGNJ 171850Z 28013KT 8000 RA FEW022 SCT035CB 07/03 Q1007 RA W (280°) 15.0mph 7°C 3°C
17/03/19 18:20 EGNJ 171820Z 27013KT 9999 FEW034 FEW040CB 07/02 Q1006 W (270°) 15.0mph 7°C 2°C
17/03/19 17:50 EGNJ 171750Z 28015KT 9999 FEW034 FEW040CB 08/01 Q1005 W (280°) 17.3mph 8°C 1°C
17/03/19 17:20 EGNJ 171720Z 26012KT 230V290 9999 SCT037 BKN042 09/02 Q1005 W (260°) 13.8mph 9°C 2°C
17/03/19 16:50 EGNJ 171650Z 27015KT 9999 SCT035 09/01 Q1004 W (270°) 17.3mph 9°C 1°C
17/03/19 16:20 EGNJ 171620Z 28015KT 9999 SCT038 09/01 Q1003 W (280°) 17.3mph 9°C 1°C
17/03/19 15:50 EGNJ 171550Z 27017KT 9999 SCT042 09/M00 Q1003 W (270°) 19.6mph 9°C 0°C
17/03/19 15:20 EGNJ 171520Z 28016KT 9999 SCT032 09/M01 Q1003 W (280°) 18.4mph 9°C -1°C
17/03/19 14:50 EGNJ 171450Z 28017KT 9999 SCT030 09/M01 Q1003 W (280°) 19.6mph 9°C -1°C
17/03/19 13:50 EGNJ 171350Z 27016KT 9999 SCT032 08/01 Q1002 W (270°) 18.4mph 8°C 1°C
17/03/19 13:20 EGNJ 171320Z 28018KT 9999 SCT030 08/01 Q1002 W (280°) 20.7mph 8°C 1°C
17/03/19 12:20 EGNJ 171220Z 26017KT 9999 VCSH FEW020CB SCT030 08/01 Q1001 VCSH W (260°) 19.6mph 8°C 1°C
17/03/19 11:50 EGNJ 171150Z 26018KT 9999 VCSH FEW020TCU SCT031 08/01 Q1001 VCSH W (260°) 20.7mph 8°C 1°C
17/03/19 11:20 EGNJ 171120Z 27014KT 9999 SCT031 08/01 Q1000 W (270°) 16.1mph 8°C 1°C
17/03/19 10:50 EGNJ 171050Z 28015KT 9999 SCT031 07/M00 Q1000 W (280°) 17.3mph 7°C 0°C
17/03/19 09:50 EGNJ 170950Z 27015KT 9999 FEW022 SCT029 06/01 Q0999 W (270°) 17.3mph 6°C 1°C
17/03/19 09:20 EGNJ 170920Z 27018G29KT 9999 SCT022 06/01 Q0999 W (270°) 20.7mph 33.4mph 6°C 1°C
17/03/19 08:50 EGNJ 170850Z 26017G30KT 9999 SCT022 06/01 Q0998 W (260°) 19.6mph 34.5mph 6°C 1°C
17/03/19 08:20 EGNJ 170820Z 27018G28KT 9999 SCT023 06/01 Q0998 W (270°) 20.7mph 32.2mph 6°C 1°C
17/03/19 07:50 EGNJ 170750Z 25016KT 9999 FEW016 05/01 Q0998 WSW (250°) 18.4mph 5°C 1°C
17/03/19 07:20 EGNJ 170720Z 25015KT 9999 FEW016 05/01 Q0997 WSW (250°) 17.3mph 5°C 1°C
17/03/19 06:50 EGNJ 170650Z 24015KT 9999 FEW010 SCT024 04/01 Q0996 WSW (240°) 17.3mph 4°C 1°C
17/03/19 06:20 EGNJ 170620Z 24014KT 9999 FEW010 04/01 Q0996 WSW (240°) 16.1mph 4°C 1°C
17/03/19 05:50 EGNJ 170550Z 25016KT 9999 FEW010 04/01 Q0996 WSW (250°) 18.4mph 4°C 1°C
17/03/19 04:50 EGNJ 170450Z AUTO 25013KT //// // FEW018/// 04/02 Q0995 WSW (250°) 15.0mph 4°C 2°C
17/03/19 04:20 EGNJ 170420Z AUTO 25015KT //// // NCD 04/02 Q0995 WSW (250°) 17.3mph 4°C 2°C
17/03/19 03:50 EGNJ 170350Z AUTO 25015KT //// // FEW024/// 04/02 Q0994 WSW (250°) 17.3mph 4°C 2°C
17/03/19 03:20 EGNJ 170320Z AUTO 25014KT //// // NCD 05/02 Q0994 WSW (250°) 16.1mph 5°C 2°C
17/03/19 02:20 EGNJ 170220Z AUTO 24013KT //// // SCT023/// 05/02 Q0993 WSW (240°) 15.0mph 5°C 2°C
17/03/19 01:50 EGNJ 170150Z AUTO 25016KT //// // FEW022/// 05/02 Q0993 WSW (250°) 18.4mph 5°C 2°C
17/03/19 01:20 EGNJ 170120Z AUTO 24016KT //// // NCD 05/02 Q0993 WSW (240°) 18.4mph 5°C 2°C
17/03/19 00:50 EGNJ 170050Z AUTO 23017KT //// // NCD 05/02 Q0993 SW (230°) 19.6mph 5°C 2°C
17/03/19 00:20 EGNJ 170020Z AUTO 23014KT //// // NCD 05/02 Q0992 SW (230°) 16.1mph 5°C 2°C
16/03/19 23:50 EGNJ 162350Z AUTO 24011KT //// // NCD 05/02 Q0992 WSW (240°) 12.7mph 5°C 2°C
16/03/19 23:20 EGNJ 162320Z AUTO 25011KT //// // NCD 06/02 Q0992 WSW (250°) 12.7mph 6°C 2°C
16/03/19 22:50 EGNJ 162250Z AUTO 26011KT //// // NCD 06/02 Q0991 W (260°) 12.7mph 6°C 2°C
16/03/19 22:20 EGNJ 162220Z AUTO 26013KT //// // NCD 06/02 Q0991 W (260°) 15.0mph 6°C 2°C
16/03/19 21:20 EGNJ 162120Z AUTO 26016KT //// // SCT025/// 07/03 Q0990 W (260°) 18.4mph 7°C 3°C
16/03/19 20:20 EGNJ 162020Z 26014KT 9999 BKN020 08/05 Q0989 W (260°) 16.1mph 8°C 5°C
16/03/19 19:50 EGNJ 161950Z 25019KT 7000 -RA SCT010 SCT016 BKN025 08/05 Q0989 -RA WSW (250°) 21.9mph 8°C 5°C
16/03/19 19:20 EGNJ 161920Z 25024G35KT 230V290 7000 -RA SCT010 SCT016 BKN025 09/07 Q0988 -RA WSW (250°) 27.6mph 40.3mph 9°C 7°C
16/03/19 18:50 EGNJ 161850Z 22023KT 9999 -RA SCT019 BKN023 10/09 Q0987 -RA SW (220°) 26.5mph 10°C 9°C
16/03/19 18:20 EGNJ 161820Z 21023KT 9999 -RA SCT019 BKN023 11/09 Q0987 -RA SSW (210°) 26.5mph 11°C 9°C
16/03/19 17:50 EGNJ 161750Z 21023KT 9999 RA SCT017 BKN025 11/09 Q0987 RA SSW (210°) 26.5mph 11°C 9°C
16/03/19 17:20 EGNJ 161720Z 21024KT 9999 RA SCT018 BKN023 11/09 Q0988 RA SSW (210°) 27.6mph 11°C 9°C
16/03/19 16:50 EGNJ 161650Z 21025KT 9999 RA SCT018 BKN023 11/09 Q0988 RA SSW (210°) 28.8mph 11°C 9°C
16/03/19 16:20 EGNJ 161620Z 21025KT 9999 -RA SCT018 BKN023 11/09 Q0989 -RA SSW (210°) 28.8mph 11°C 9°C
16/03/19 15:50 EGNJ 161550Z 21025KT 9999 -RA SCT020 BKN027 12/08 Q0989 -RA SSW (210°) 28.8mph 12°C 8°C
16/03/19 15:20 EGNJ 161520Z 21026KT 9999 SCT023 BKN028 12/08 Q0989 SSW (210°) 29.9mph 12°C 8°C
16/03/19 14:50 EGNJ 161450Z 21027KT 9999 SCT023 BKN028 12/08 Q0990 SSW (210°) 31.1mph 12°C 8°C
16/03/19 14:20 EGNJ 161420Z 21024KT 9999 SCT020 BKN024 12/08 Q0990 SSW (210°) 27.6mph 12°C 8°C
16/03/19 13:50 EGNJ 161350Z 21026KT 9999 SCT020 BKN024 12/08 Q0991 SSW (210°) 29.9mph 12°C 8°C
16/03/19 13:20 EGNJ 161320Z 22027KT 9999 -RA SCT020 BKN024 13/08 Q0991 -RA SW (220°) 31.1mph 13°C 8°C
16/03/19 12:50 EGNJ 161250Z 22026KT 9999 FEW018 BKN022 12/08 Q0992 SW (220°) 29.9mph 12°C 8°C
16/03/19 12:20 EGNJ 161220Z 22028G38KT 9999 FEW018 BKN022 12/08 Q0992 SW (220°) 32.2mph 43.7mph 12°C 8°C
16/03/19 11:50 EGNJ 161150Z 22028G38KT 9999 -RA FEW018 BKN022 12/08 Q0993 -RA SW (220°) 32.2mph 43.7mph 12°C 8°C
16/03/19 11:20 EGNJ 161120Z 22025G35KT 9999 FEW018 BKN022 11/09 Q0993 SW (220°) 28.8mph 40.3mph 11°C 9°C
16/03/19 10:50 EGNJ 161050Z 22028KT 9999 -RA BKN021 11/09 Q0993 -RA SW (220°) 32.2mph 11°C 9°C
16/03/19 10:20 EGNJ 161020Z 22026KT 9999 -RA BKN021 12/08 Q0994 -RA SW (220°) 29.9mph 12°C 8°C
16/03/19 09:50 EGNJ 160950Z 22026KT 9999 -RA BKN021 12/08 Q0994 -RA SW (220°) 29.9mph 12°C 8°C
16/03/19 09:20 EGNJ 160920Z 22024KT 9999 OVC019 11/09 Q0994 SW (220°) 27.6mph 11°C 9°C
16/03/19 08:50 EGNJ 160850Z 22026KT 9999 -RA BKN018 11/09 Q0994 -RA SW (220°) 29.9mph 11°C 9°C
16/03/19 08:20 EGNJ 160820Z 22026KT 9999 -RA OVC020 11/09 Q0995 -RA SW (220°) 29.9mph 11°C 9°C
16/03/19 07:50 EGNJ 160750Z 21023KT 9000 -RA FEW012 BKN018 11/09 Q0995 -RA SSW (210°) 26.5mph 11°C 9°C
16/03/19 07:20 EGNJ 160720Z 21023KT 8000 -RA FEW008 BKN023 11/09 Q0996 -RA SSW (210°) 26.5mph 11°C 9°C
16/03/19 06:50 EGNJ 160650Z 21019KT 8000 -RA FEW006 BKN019 10/09 Q0996 -RA SSW (210°) 21.9mph 10°C 9°C
16/03/19 06:20 EGNJ 160620Z 19014KT 8000 -RA FEW003 BKN019 09/08 Q0997 -RA S (190°) 16.1mph 9°C 8°C
16/03/19 05:50 EGNJ 160550Z AUTO 16005KT 140V200 //// // OVC004/// 07/06 Q0998 SSE (160°) 5.8mph 7°C 6°C
16/03/19 05:20 EGNJ 160520Z AUTO 13009KT //// // BKN003/// OVC006/// 06/06 Q0999 SE (130°) 10.4mph 6°C 6°C
16/03/19 04:50 EGNJ 160450Z AUTO 12007KT //// // BKN003/// OVC013/// 06/06 Q0999 ESE (120°) 8.1mph 6°C 6°C
16/03/19 04:20 EGNJ 160420Z AUTO 13005KT //// // BKN014/// BKN019/// OVC030/// 06/06 Q1000 SE (130°) 5.8mph 6°C 6°C
16/03/19 03:50 EGNJ 160350Z AUTO 14006KT //// // FEW010/// OVC024/// 06/05 Q1001 SE (140°) 6.9mph 6°C 5°C
16/03/19 03:20 EGNJ 160320Z AUTO 17005KT //// // FEW022/// BKN029/// OVC034/// 06/05 Q1002 S (170°) 5.8mph 6°C 5°C
16/03/19 02:50 EGNJ 160250Z AUTO 16005KT //// // BKN018/// BKN024/// OVC029/// 06/06 Q1003 SSE (160°) 5.8mph 6°C 6°C
16/03/19 02:20 EGNJ 160220Z AUTO 19006KT //// // FEW015/// SCT019/// BKN025/// 06/05 Q1004 S (190°) 6.9mph 6°C 5°C
16/03/19 01:50 EGNJ 160150Z AUTO 20009KT //// // SCT025/// BKN031/// BKN037/// 06/05 Q1004 SSW (200°) 10.4mph 6°C 5°C
16/03/19 01:20 EGNJ 160120Z AUTO 20009KT //// // SCT028/// SCT033/// BKN038/// 06/05 Q1005 SSW (200°) 10.4mph 6°C 5°C
16/03/19 00:20 EGNJ 160020Z AUTO 21011KT //// // NCD 07/03 Q1006 SSW (210°) 12.7mph 7°C 3°C
15/03/19 23:50 EGNJ 152350Z AUTO 21013KT //// // NCD 07/03 Q1006 SSW (210°) 15.0mph 7°C 3°C
15/03/19 23:20 EGNJ 152320Z AUTO 21012KT //// // NCD 07/02 Q1006 SSW (210°) 13.8mph 7°C 2°C
15/03/19 22:50 EGNJ 152250Z AUTO 20008KT //// // NCD 06/03 Q1007 SSW (200°) 9.2mph 6°C 3°C
15/03/19 22:20 EGNJ 152220Z AUTO 18010KT //// // NCD 05/02 Q1007 S (180°) 11.5mph 5°C 2°C
15/03/19 21:20 EGNJ 152120Z AUTO 25013KT //// // NCD 07/02 Q1006 WSW (250°) 15.0mph 7°C 2°C
15/03/19 20:50 EGNJ 152050Z 24013KT CAVOK 07/02 Q1006 WSW (240°) 15.0mph 7°C 2°C